sensor_id;sensor_type;location;lat;lon;timestamp;temperature;humidity
59162;DHT22;44942;48.936;8.260;2023-08-31T00:03:20;24.60;53.60
59162;DHT22;44942;48.936;8.260;2023-08-31T00:08:20;24.60;53.60
59162;DHT22;44942;48.936;8.260;2023-08-31T00:13:22;24.60;53.70
59162;DHT22;44942;48.936;8.260;2023-08-31T00:18:23;24.60;53.70
59162;DHT22;44942;48.936;8.260;2023-08-31T00:23:24;24.60;53.70
59162;DHT22;44942;48.936;8.260;2023-08-31T00:28:25;24.60;53.80
59162;DHT22;44942;48.936;8.260;2023-08-31T00:33:27;24.50;53.70
59162;DHT22;44942;48.936;8.260;2023-08-31T00:38:28;24.60;53.80
59162;DHT22;44942;48.936;8.260;2023-08-31T00:43:29;24.50;53.70
59162;DHT22;44942;48.936;8.260;2023-08-31T00:48:29;24.50;53.70
59162;DHT22;44942;48.936;8.260;2023-08-31T00:53:30;24.50;53.70
59162;DHT22;44942;48.936;8.260;2023-08-31T00:58:31;24.50;53.70
59162;DHT22;44942;48.936;8.260;2023-08-31T01:03:53;24.50;53.60
59162;DHT22;44942;48.936;8.260;2023-08-31T01:09:05;24.40;53.60
59162;DHT22;44942;48.936;8.260;2023-08-31T01:14:16;24.40;53.50
59162;DHT22;44942;48.936;8.260;2023-08-31T01:19:44;24.40;53.60
59162;DHT22;44942;48.936;8.260;2023-08-31T01:24:47;24.40;53.60
59162;DHT22;44942;48.936;8.260;2023-08-31T01:29:47;24.40;53.60
59162;DHT22;44942;48.936;8.260;2023-08-31T01:34:50;24.40;53.50
59162;DHT22;44942;48.936;8.260;2023-08-31T01:45:15;24.40;53.60
59162;DHT22;44942;48.936;8.260;2023-08-31T01:50:19;24.40;53.70
59162;DHT22;44942;48.936;8.260;2023-08-31T01:55:19;24.40;53.80
59162;DHT22;44942;48.936;8.260;2023-08-31T02:00:21;24.30;53.70
59162;DHT22;44942;48.936;8.260;2023-08-31T02:05:22;24.30;53.70
59162;DHT22;44942;48.936;8.260;2023-08-31T02:10:23;24.40;53.80
59162;DHT22;44942;48.936;8.260;2023-08-31T02:15:23;24.30;53.70
59162;DHT22;44942;48.936;8.260;2023-08-31T02:20:24;24.30;53.70
59162;DHT22;44942;48.936;8.260;2023-08-31T02:25:24;24.30;53.70
59162;DHT22;44942;48.936;8.260;2023-08-31T02:30:28;24.30;53.80
59162;DHT22;44942;48.936;8.260;2023-08-31T02:35:28;24.30;53.80
59162;DHT22;44942;48.936;8.260;2023-08-31T02:40:29;24.30;53.80
59162;DHT22;44942;48.936;8.260;2023-08-31T02:45:29;24.30;53.90
59162;DHT22;44942;48.936;8.260;2023-08-31T02:50:30;24.30;53.90
59162;DHT22;44942;48.936;8.260;2023-08-31T02:55:34;24.30;53.90
59162;DHT22;44942;48.936;8.260;2023-08-31T03:00:34;24.30;53.90
59162;DHT22;44942;48.936;8.260;2023-08-31T03:05:35;24.30;53.90
59162;DHT22;44942;48.936;8.260;2023-08-31T03:10:37;24.30;53.90
59162;DHT22;44942;48.936;8.260;2023-08-31T03:15:37;24.20;53.90
59162;DHT22;44942;48.936;8.260;2023-08-31T03:20:38;24.20;53.80
59162;DHT22;44942;48.936;8.260;2023-08-31T03:25:38;24.20;53.70
59162;DHT22;44942;48.936;8.260;2023-08-31T03:30:39;24.20;53.80
59162;DHT22;44942;48.936;8.260;2023-08-31T03:35:39;24.20;53.80
59162;DHT22;44942;48.936;8.260;2023-08-31T03:40:40;24.20;53.80
59162;DHT22;44942;48.936;8.260;2023-08-31T03:45:41;24.20;53.80
59162;DHT22;44942;48.936;8.260;2023-08-31T03:50:41;24.20;53.70
59162;DHT22;44942;48.936;8.260;2023-08-31T03:55:42;24.20;53.70
59162;DHT22;44942;48.936;8.260;2023-08-31T04:00:43;24.20;53.70
59162;DHT22;44942;48.936;8.260;2023-08-31T04:05:43;24.20;53.70
59162;DHT22;44942;48.936;8.260;2023-08-31T04:10:44;24.20;53.80
59162;DHT22;44942;48.936;8.260;2023-08-31T04:15:44;24.20;53.80
59162;DHT22;44942;48.936;8.260;2023-08-31T04:20:53;24.20;53.80
59162;DHT22;44942;48.936;8.260;2023-08-31T04:25:53;24.10;53.70
59162;DHT22;44942;48.936;8.260;2023-08-31T04:30:54;24.10;53.70
59162;DHT22;44942;48.936;8.260;2023-08-31T04:35:54;24.10;53.80
59162;DHT22;44942;48.936;8.260;2023-08-31T04:40:58;24.10;53.70
59162;DHT22;44942;48.936;8.260;2023-08-31T04:45:58;24.10;53.70
59162;DHT22;44942;48.936;8.260;2023-08-31T04:50:59;24.10;53.70
59162;DHT22;44942;48.936;8.260;2023-08-31T04:55:59;24.10;53.70
59162;DHT22;44942;48.936;8.260;2023-08-31T05:01:00;24.10;53.80
59162;DHT22;44942;48.936;8.260;2023-08-31T05:06:01;24.10;53.70
59162;DHT22;44942;48.936;8.260;2023-08-31T05:11:04;24.10;53.80
59162;DHT22;44942;48.936;8.260;2023-08-31T05:16:04;24.10;53.70
59162;DHT22;44942;48.936;8.260;2023-08-31T05:21:06;24.10;53.70
59162;DHT22;44942;48.936;8.260;2023-08-31T05:26:06;24.10;53.80
59162;DHT22;44942;48.936;8.260;2023-08-31T05:31:07;24.10;53.70
59162;DHT22;44942;48.936;8.260;2023-08-31T05:36:07;24.10;53.70
59162;DHT22;44942;48.936;8.260;2023-08-31T05:41:08;24.10;53.70
59162;DHT22;44942;48.936;8.260;2023-08-31T05:46:09;24.00;53.70
59162;DHT22;44942;48.936;8.260;2023-08-31T05:51:10;24.10;54.00
59162;DHT22;44942;48.936;8.260;2023-08-31T05:56:10;24.00;53.70
59162;DHT22;44942;48.936;8.260;2023-08-31T06:01:11;24.00;53.80
59162;DHT22;44942;48.936;8.260;2023-08-31T06:06:11;24.00;53.90
59162;DHT22;44942;48.936;8.260;2023-08-31T06:11:12;24.00;53.90
59162;DHT22;44942;48.936;8.260;2023-08-31T06:16:13;24.00;53.90
59162;DHT22;44942;48.936;8.260;2023-08-31T06:21:14;24.00;53.90
59162;DHT22;44942;48.936;8.260;2023-08-31T06:26:14;24.00;53.90
59162;DHT22;44942;48.936;8.260;2023-08-31T06:31:15;24.00;54.00
59162;DHT22;44942;48.936;8.260;2023-08-31T06:36:16;24.10;54.10
59162;DHT22;44942;48.936;8.260;2023-08-31T06:41:16;24.10;54.20
59162;DHT22;44942;48.936;8.260;2023-08-31T06:46:17;24.10;54.20
59162;DHT22;44942;48.936;8.260;2023-08-31T06:51:17;24.10;54.30
59162;DHT22;44942;48.936;8.260;2023-08-31T06:56:18;24.10;54.30
59162;DHT22;44942;48.936;8.260;2023-08-31T07:01:18;24.10;54.40
59162;DHT22;44942;48.936;8.260;2023-08-31T07:06:19;24.10;54.40
59162;DHT22;44942;48.936;8.260;2023-08-31T07:11:19;24.10;54.40
59162;DHT22;44942;48.936;8.260;2023-08-31T07:16:20;24.10;54.40
59162;DHT22;44942;48.936;8.260;2023-08-31T07:21:21;24.10;54.40
59162;DHT22;44942;48.936;8.260;2023-08-31T07:26:22;24.10;54.40
59162;DHT22;44942;48.936;8.260;2023-08-31T07:31:23;24.20;54.40
59162;DHT22;44942;48.936;8.260;2023-08-31T07:36:24;24.20;54.30
59162;DHT22;44942;48.936;8.260;2023-08-31T07:41:25;24.20;54.20
59162;DHT22;44942;48.936;8.260;2023-08-31T07:46:26;24.20;54.20
59162;DHT22;44942;48.936;8.260;2023-08-31T07:51:26;24.20;54.10
59162;DHT22;44942;48.936;8.260;2023-08-31T07:56:27;24.20;53.90
59162;DHT22;44942;48.936;8.260;2023-08-31T08:01:27;24.20;53.80
59162;DHT22;44942;48.936;8.260;2023-08-31T08:06:28;24.20;53.80
59162;DHT22;44942;48.936;8.260;2023-08-31T08:11:28;24.20;53.70
59162;DHT22;44942;48.936;8.260;2023-08-31T08:16:29;24.30;53.60
59162;DHT22;44942;48.936;8.260;2023-08-31T08:21:30;24.30;53.40
59162;DHT22;44942;48.936;8.260;2023-08-31T08:26:30;24.30;53.40
59162;DHT22;44942;48.936;8.260;2023-08-31T08:31:31;24.30;53.20
59162;DHT22;44942;48.936;8.260;2023-08-31T08:36:31;24.30;53.00
59162;DHT22;44942;48.936;8.260;2023-08-31T08:41:33;24.30;53.00
59162;DHT22;44942;48.936;8.260;2023-08-31T08:46:33;24.40;53.00
59162;DHT22;44942;48.936;8.260;2023-08-31T08:51:34;24.40;53.10
59162;DHT22;44942;48.936;8.260;2023-08-31T08:56:35;24.40;53.20
59162;DHT22;44942;48.936;8.260;2023-08-31T09:01:36;24.40;53.20
59162;DHT22;44942;48.936;8.260;2023-08-31T09:06:38;24.50;53.30
59162;DHT22;44942;48.936;8.260;2023-08-31T09:11:39;24.50;53.00
59162;DHT22;44942;48.936;8.260;2023-08-31T09:16:44;24.60;52.80
59162;DHT22;44942;48.936;8.260;2023-08-31T09:21:47;24.60;52.40
59162;DHT22;44942;48.936;8.260;2023-08-31T09:26:51;24.60;52.20
59162;DHT22;44942;48.936;8.260;2023-08-31T09:31:52;24.60;52.00
59162;DHT22;44942;48.936;8.260;2023-08-31T09:36:53;24.60;51.90
59162;DHT22;44942;48.936;8.260;2023-08-31T09:41:54;24.60;51.90
59162;DHT22;44942;48.936;8.260;2023-08-31T09:46:55;24.70;51.90
59162;DHT22;44942;48.936;8.260;2023-08-31T09:51:58;24.60;51.50
59162;DHT22;44942;48.936;8.260;2023-08-31T09:57:02;24.60;51.10
59162;DHT22;44942;48.936;8.260;2023-08-31T10:02:03;24.60;51.20
59162;DHT22;44942;48.936;8.260;2023-08-31T10:07:04;24.70;51.20
59162;DHT22;44942;48.936;8.260;2023-08-31T10:12:06;24.70;51.10
59162;DHT22;44942;48.936;8.260;2023-08-31T10:17:08;24.70;51.10
59162;DHT22;44942;48.936;8.260;2023-08-31T10:22:09;24.70;51.10
59162;DHT22;44942;48.936;8.260;2023-08-31T10:27:19;24.70;51.20
59162;DHT22;44942;48.936;8.260;2023-08-31T10:44:19;24.70;50.80
59162;DHT22;44942;48.936;8.260;2023-08-31T10:49:21;24.70;50.50
59162;DHT22;44942;48.936;8.260;2023-08-31T10:54:29;24.60;49.70
59162;DHT22;44942;48.936;8.260;2023-08-31T10:59:51;24.60;49.40
59162;DHT22;44942;48.936;8.260;2023-08-31T11:04:59;24.60;49.00
59162;DHT22;44942;48.936;8.260;2023-08-31T11:10:25;24.60;48.90
59162;DHT22;44942;48.936;8.260;2023-08-31T11:15:27;24.60;48.60
59162;DHT22;44942;48.936;8.260;2023-08-31T11:20:30;24.60;48.70
59162;DHT22;44942;48.936;8.260;2023-08-31T11:25:32;24.60;48.80
59162;DHT22;44942;48.936;8.260;2023-08-31T11:30:33;24.60;48.60
59162;DHT22;44942;48.936;8.260;2023-08-31T11:35:36;24.60;48.70
59162;DHT22;44942;48.936;8.260;2023-08-31T11:40:37;24.60;48.70
59162;DHT22;44942;48.936;8.260;2023-08-31T11:45:38;24.60;48.70
59162;DHT22;44942;48.936;8.260;2023-08-31T11:50:39;24.60;48.70
59162;DHT22;44942;48.936;8.260;2023-08-31T11:55:49;24.60;48.50
59162;DHT22;44942;48.936;8.260;2023-08-31T12:00:58;24.60;48.30
59162;DHT22;44942;48.936;8.260;2023-08-31T12:05:59;24.60;48.50
59162;DHT22;44942;48.936;8.260;2023-08-31T12:11:01;24.70;48.90
59162;DHT22;44942;48.936;8.260;2023-08-31T12:16:02;24.70;48.80
59162;DHT22;44942;48.936;8.260;2023-08-31T12:21:06;24.70;49.00
59162;DHT22;44942;48.936;8.260;2023-08-31T12:26:06;24.70;49.00
59162;DHT22;44942;48.936;8.260;2023-08-31T12:31:08;24.70;49.00
59162;DHT22;44942;48.936;8.260;2023-08-31T12:36:09;24.70;49.10
59162;DHT22;44942;48.936;8.260;2023-08-31T12:41:09;24.70;49.20
59162;DHT22;44942;48.936;8.260;2023-08-31T12:46:10;24.80;49.40
59162;DHT22;44942;48.936;8.260;2023-08-31T12:51:13;24.80;49.50
59162;DHT22;44942;48.936;8.260;2023-08-31T12:56:14;24.80;49.80
59162;DHT22;44942;48.936;8.260;2023-08-31T13:01:22;24.80;50.10
59162;DHT22;44942;48.936;8.260;2023-08-31T13:06:26;24.80;50.20
59162;DHT22;44942;48.936;8.260;2023-08-31T13:11:27;24.80;50.20
59162;DHT22;44942;48.936;8.260;2023-08-31T13:16:28;24.90;50.40
59162;DHT22;44942;48.936;8.260;2023-08-31T13:21:28;24.90;50.40
59162;DHT22;44942;48.936;8.260;2023-08-31T13:26:29;24.90;50.40
59162;DHT22;44942;48.936;8.260;2023-08-31T13:31:29;24.90;50.30
59162;DHT22;44942;48.936;8.260;2023-08-31T13:36:30;24.90;50.30
59162;DHT22;44942;48.936;8.260;2023-08-31T13:41:31;24.90;50.40
59162;DHT22;44942;48.936;8.260;2023-08-31T13:46:31;24.90;50.30
59162;DHT22;44942;48.936;8.260;2023-08-31T13:51:32;24.90;50.30
59162;DHT22;44942;48.936;8.260;2023-08-31T13:56:33;24.90;50.30
59162;DHT22;44942;48.936;8.260;2023-08-31T14:01:34;24.90;50.50
59162;DHT22;44942;48.936;8.260;2023-08-31T14:06:34;24.90;50.50
59162;DHT22;44942;48.936;8.260;2023-08-31T14:11:36;24.90;50.50
59162;DHT22;44942;48.936;8.260;2023-08-31T14:16:37;24.90;50.60
59162;DHT22;44942;48.936;8.260;2023-08-31T14:21:38;24.90;50.60
59162;DHT22;44942;48.936;8.260;2023-08-31T14:26:38;24.90;50.60
59162;DHT22;44942;48.936;8.260;2023-08-31T14:31:39;24.90;50.60
59162;DHT22;44942;48.936;8.260;2023-08-31T14:36:40;24.90;50.60
59162;DHT22;44942;48.936;8.260;2023-08-31T14:41:40;24.90;50.70
59162;DHT22;44942;48.936;8.260;2023-08-31T14:46:41;24.90;50.70
59162;DHT22;44942;48.936;8.260;2023-08-31T14:51:42;24.90;50.80
59162;DHT22;44942;48.936;8.260;2023-08-31T14:56:42;24.90;50.80
59162;DHT22;44942;48.936;8.260;2023-08-31T15:01:43;24.90;50.90
59162;DHT22;44942;48.936;8.260;2023-08-31T15:06:43;24.90;50.90
59162;DHT22;44942;48.936;8.260;2023-08-31T15:11:44;24.90;50.90
59162;DHT22;44942;48.936;8.260;2023-08-31T15:16:45;24.90;50.90
59162;DHT22;44942;48.936;8.260;2023-08-31T15:21:45;24.90;51.00
59162;DHT22;44942;48.936;8.260;2023-08-31T15:26:46;24.90;50.90
59162;DHT22;44942;48.936;8.260;2023-08-31T15:31:46;24.90;51.00
59162;DHT22;44942;48.936;8.260;2023-08-31T15:36:47;24.90;50.90
59162;DHT22;44942;48.936;8.260;2023-08-31T15:41:48;24.90;51.00
59162;DHT22;44942;48.936;8.260;2023-08-31T15:46:48;24.90;51.00
59162;DHT22;44942;48.936;8.260;2023-08-31T15:51:49;24.90;51.00
59162;DHT22;44942;48.936;8.260;2023-08-31T15:56:49;24.90;51.10
59162;DHT22;44942;48.936;8.260;2023-08-31T16:01:50;24.90;51.10
59162;DHT22;44942;48.936;8.260;2023-08-31T16:06:50;24.90;51.10
59162;DHT22;44942;48.936;8.260;2023-08-31T16:11:51;24.90;51.10
59162;DHT22;44942;48.936;8.260;2023-08-31T16:16:51;24.90;51.10
59162;DHT22;44942;48.936;8.260;2023-08-31T16:21:52;24.90;51.10
59162;DHT22;44942;48.936;8.260;2023-08-31T16:26:52;24.90;51.10
59162;DHT22;44942;48.936;8.260;2023-08-31T16:31:53;24.90;51.10
59162;DHT22;44942;48.936;8.260;2023-08-31T16:36:54;24.90;51.10
59162;DHT22;44942;48.936;8.260;2023-08-31T16:41:54;24.90;51.20
59162;DHT22;44942;48.936;8.260;2023-08-31T16:46:55;24.90;51.20
59162;DHT22;44942;48.936;8.260;2023-08-31T16:51:55;24.90;51.20
59162;DHT22;44942;48.936;8.260;2023-08-31T16:56:57;24.90;51.20
59162;DHT22;44942;48.936;8.260;2023-08-31T17:01:57;24.90;51.10
59162;DHT22;44942;48.936;8.260;2023-08-31T17:06:58;24.90;51.20
59162;DHT22;44942;48.936;8.260;2023-08-31T17:11:58;24.90;51.10
59162;DHT22;44942;48.936;8.260;2023-08-31T17:16:59;24.90;51.20
59162;DHT22;44942;48.936;8.260;2023-08-31T17:22:02;24.90;51.20
59162;DHT22;44942;48.936;8.260;2023-08-31T17:27:03;24.90;51.10
59162;DHT22;44942;48.936;8.260;2023-08-31T17:32:04;24.90;51.20
59162;DHT22;44942;48.936;8.260;2023-08-31T17:37:05;24.80;51.10
59162;DHT22;44942;48.936;8.260;2023-08-31T17:42:05;24.90;51.10
59162;DHT22;44942;48.936;8.260;2023-08-31T17:47:06;24.90;51.20
59162;DHT22;44942;48.936;8.260;2023-08-31T17:52:06;24.80;51.10
59162;DHT22;44942;48.936;8.260;2023-08-31T17:57:07;24.90;51.20
59162;DHT22;44942;48.936;8.260;2023-08-31T18:02:08;24.80;51.20
59162;DHT22;44942;48.936;8.260;2023-08-31T18:07:08;24.90;51.30
59162;DHT22;44942;48.936;8.260;2023-08-31T18:12:09;24.90;51.30
59162;DHT22;44942;48.936;8.260;2023-08-31T18:17:10;24.80;51.30
59162;DHT22;44942;48.936;8.260;2023-08-31T18:22:10;24.80;51.30
59162;DHT22;44942;48.936;8.260;2023-08-31T18:27:11;24.80;51.40
59162;DHT22;44942;48.936;8.260;2023-08-31T18:32:11;24.80;51.40
59162;DHT22;44942;48.936;8.260;2023-08-31T18:37:12;24.80;51.50
59162;DHT22;44942;48.936;8.260;2023-08-31T18:42:12;24.80;51.50
59162;DHT22;44942;48.936;8.260;2023-08-31T18:47:13;24.80;51.60
59162;DHT22;44942;48.936;8.260;2023-08-31T18:52:13;24.80;51.70
59162;DHT22;44942;48.936;8.260;2023-08-31T18:57:14;24.80;51.90
59162;DHT22;44942;48.936;8.260;2023-08-31T19:02:15;24.80;52.00
59162;DHT22;44942;48.936;8.260;2023-08-31T19:07:15;24.80;52.10
59162;DHT22;44942;48.936;8.260;2023-08-31T19:12:16;24.80;52.20
59162;DHT22;44942;48.936;8.260;2023-08-31T19:17:16;24.80;52.20
59162;DHT22;44942;48.936;8.260;2023-08-31T19:22:17;24.70;52.10
59162;DHT22;44942;48.936;8.260;2023-08-31T19:27:18;24.80;52.20
59162;DHT22;44942;48.936;8.260;2023-08-31T19:32:19;24.80;52.20
59162;DHT22;44942;48.936;8.260;2023-08-31T19:37:20;24.80;52.10
59162;DHT22;44942;48.936;8.260;2023-08-31T19:42:20;24.80;52.30
59162;DHT22;44942;48.936;8.260;2023-08-31T19:47:21;24.80;52.40
59162;DHT22;44942;48.936;8.260;2023-08-31T19:52:21;24.80;52.50
59162;DHT22;44942;48.936;8.260;2023-08-31T19:57:22;24.80;52.50
59162;DHT22;44942;48.936;8.260;2023-08-31T20:02:22;24.80;52.60
59162;DHT22;44942;48.936;8.260;2023-08-31T20:07:23;24.80;52.70
59162;DHT22;44942;48.936;8.260;2023-08-31T20:12:24;24.80;52.70
59162;DHT22;44942;48.936;8.260;2023-08-31T20:17:24;24.80;52.80
59162;DHT22;44942;48.936;8.260;2023-08-31T20:22:25;24.80;52.80
59162;DHT22;44942;48.936;8.260;2023-08-31T20:27:26;24.80;52.90
59162;DHT22;44942;48.936;8.260;2023-08-31T20:32:26;24.80;52.90
59162;DHT22;44942;48.936;8.260;2023-08-31T20:37:27;24.90;53.00
59162;DHT22;44942;48.936;8.260;2023-08-31T20:42:27;24.90;53.00
59162;DHT22;44942;48.936;8.260;2023-08-31T20:47:28;24.90;53.10
59162;DHT22;44942;48.936;8.260;2023-08-31T20:52:29;24.90;53.10
59162;DHT22;44942;48.936;8.260;2023-08-31T20:57:31;24.90;53.20
59162;DHT22;44942;48.936;8.260;2023-08-31T21:02:32;24.90;53.20
59162;DHT22;44942;48.936;8.260;2023-08-31T21:07:33;24.90;53.30
59162;DHT22;44942;48.936;8.260;2023-08-31T21:12:33;24.90;53.30
59162;DHT22;44942;48.936;8.260;2023-08-31T21:17:34;24.90;53.40
59162;DHT22;44942;48.936;8.260;2023-08-31T21:22:35;24.80;53.30
59162;DHT22;44942;48.936;8.260;2023-08-31T21:27:35;24.90;53.40
59162;DHT22;44942;48.936;8.260;2023-08-31T21:32:36;24.90;53.50
59162;DHT22;44942;48.936;8.260;2023-08-31T21:37:36;24.90;53.50
59162;DHT22;44942;48.936;8.260;2023-08-31T21:42:38;24.90;53.50
59162;DHT22;44942;48.936;8.260;2023-08-31T21:47:39;24.90;53.50
59162;DHT22;44942;48.936;8.260;2023-08-31T21:52:39;24.90;53.60
59162;DHT22;44942;48.936;8.260;2023-08-31T21:57:40;24.90;53.60
59162;DHT22;44942;48.936;8.260;2023-08-31T22:02:46;24.90;53.60
59162;DHT22;44942;48.936;8.260;2023-08-31T22:07:47;24.90;53.70
59162;DHT22;44942;48.936;8.260;2023-08-31T22:12:48;24.90;53.70
59162;DHT22;44942;48.936;8.260;2023-08-31T22:17:54;24.90;53.90
59162;DHT22;44942;48.936;8.260;2023-08-31T22:22:55;24.90;53.90
59162;DHT22;44942;48.936;8.260;2023-08-31T22:27:57;24.90;53.90
59162;DHT22;44942;48.936;8.260;2023-08-31T22:32:58;24.90;53.90
59162;DHT22;44942;48.936;8.260;2023-08-31T22:37:59;24.90;53.90
59162;DHT22;44942;48.936;8.260;2023-08-31T22:42:59;24.90;53.80
59162;DHT22;44942;48.936;8.260;2023-08-31T22:48:00;24.90;53.90
59162;DHT22;44942;48.936;8.260;2023-08-31T22:53:00;24.90;53.90
59162;DHT22;44942;48.936;8.260;2023-08-31T22:58:01;24.90;53.90
59162;DHT22;44942;48.936;8.260;2023-08-31T23:03:01;24.90;53.90
59162;DHT22;44942;48.936;8.260;2023-08-31T23:08:02;24.90;54.00
59162;DHT22;44942;48.936;8.260;2023-08-31T23:13:03;24.90;53.90
59162;DHT22;44942;48.936;8.260;2023-08-31T23:18:04;24.90;53.90
59162;DHT22;44942;48.936;8.260;2023-08-31T23:23:04;24.90;53.90
59162;DHT22;44942;48.936;8.260;2023-08-31T23:28:08;24.90;53.90
59162;DHT22;44942;48.936;8.260;2023-08-31T23:33:08;24.90;54.00
59162;DHT22;44942;48.936;8.260;2023-08-31T23:38:09;24.90;53.90
59162;DHT22;44942;48.936;8.260;2023-08-31T23:43:10;24.90;54.00
59162;DHT22;44942;48.936;8.260;2023-08-31T23:48:10;24.90;54.00
59162;DHT22;44942;48.936;8.260;2023-08-31T23:53:11;24.90;53.90
59162;DHT22;44942;48.936;8.260;2023-08-31T23:58:12;24.90;54.00
